Terminal Aerodrome Forecast
Issued by NWS Charleston, WV

Current Version | Previous Version | Graphics & Text | Print | Product List | Glossary On
Versions: 1 2 3 4 5 6 7 8 9 10 11 12 13 14 15 16 17 18 19 20
000
FTUS41 KRLX 232300
TAFPKB
TAF
KPKB 232324Z 2400/2424 15011G20KT P6SM -SHRA OVC060
     FM240600 17012G22KT P6SM OVC040
     FM240800 19012G22KT 5SM BR BKN030
     FM241100 18011G19KT 6SM BR BKN035
     FM241600 19017G31KT P6SM BKN035
     FM241800 21022G40KT P6SM BKN040
     FM242200 24016G32KT P6SM BKN035=

USA.gov is the U.S. government's official web portal to all federal, state and local government web resources and services.